Elger Bay, Washington
Current Conditions -  °F | °C
As of 6:35 AM on Saturday 25 Oct 2014 (Local Time) from KAWO Reporting Station
Broken Clouds Broken Clouds  
Wind Chill:   Ceiling: 100
Heat Index:   Visibility: 1mi
Dew Point:   Wind: 5mph
Humidity: 87%   Direction: 300°WNW
Pressure: 29.48"   Gusts: NA
Location:  48.2145°N, 122.297°W
Report Text: KAWO 251335Z AUTO 30004KT 1SM BKN001 06/04 A2948 RMK AO1
Loading
Personal Weather Stations






























Interactive Weather Map
Tropical Storm Tracking
New forecast layout! Learn more

10-Day Weather Forecast

Advertisements
Track Severe Weather on mobile